createdAt,value
2023-01-11T00:01:08.510Z,6.00
2023-01-11T00:04:13.141Z,4.97
2023-01-11T00:07:16.875Z,5.07
2023-01-11T00:10:20.918Z,5.63
2023-01-11T00:13:24.484Z,5.20
2023-01-11T00:16:30.008Z,5.60
2023-01-11T00:19:34.871Z,4.90
2023-01-11T00:22:38.861Z,4.73
2023-01-11T00:25:42.407Z,5.00
2023-01-11T00:28:45.459Z,4.63
2023-01-11T00:31:48.549Z,5.77
2023-01-11T00:34:53.108Z,5.43
2023-01-11T00:37:57.503Z,6.33
2023-01-11T00:41:20.740Z,5.60
2023-01-11T00:44:41.315Z,6.30
2023-01-11T00:48:00.864Z,5.73
2023-01-11T00:51:05.663Z,6.00
2023-01-11T00:54:09.161Z,6.10
2023-01-11T00:57:12.243Z,6.20
2023-01-11T01:00:18.946Z,6.70
2023-01-11T01:03:22.216Z,6.27
2023-01-11T01:06:27.075Z,6.80
2023-01-11T01:09:30.621Z,5.73
2023-01-11T01:12:52.034Z,6.03
2023-01-11T01:15:58.795Z,6.70
2023-01-11T01:19:02.466Z,6.07
2023-01-11T01:22:07.514Z,7.07
2023-01-11T01:25:11.513Z,6.37
2023-01-11T01:28:15.174Z,6.20
2023-01-11T01:31:18.995Z,6.30
2023-01-11T01:34:22.748Z,6.37
2023-01-11T01:37:28.446Z,6.83
2023-01-11T01:40:32.066Z,6.57
2023-01-11T01:43:51.057Z,6.63
2023-01-11T01:46:54.179Z,6.17
2023-01-11T01:49:59.175Z,6.43
2023-01-11T01:53:09.371Z,7.27
2023-01-11T01:56:16.440Z,6.33
2023-01-11T01:59:21.516Z,6.07
2023-01-11T02:02:27.550Z,6.50
2023-01-11T02:05:31.621Z,5.90
2023-01-11T02:08:40.578Z,6.23
2023-01-11T02:11:45.205Z,5.70
2023-01-11T02:14:49.268Z,5.80
2023-01-11T02:17:52.957Z,5.73
2023-01-11T02:21:10.766Z,6.20
2023-01-11T02:24:49.548Z,6.03
2023-01-11T02:28:07.796Z,5.50
2023-01-11T02:31:21.137Z,6.13
2023-01-11T02:34:37.935Z,5.90
2023-01-11T02:37:48.396Z,5.80
2023-01-11T02:40:58.902Z,5.33
2023-01-11T02:44:29.704Z,5.30
2023-01-11T02:47:41.220Z,5.10
2023-01-11T02:50:51.058Z,6.10
2023-01-11T02:53:59.749Z,5.27
2023-01-11T02:57:05.377Z,5.40
2023-01-11T03:00:13.424Z,4.80
2023-01-11T03:03:19.663Z,5.47
2023-01-11T03:06:25.736Z,4.67
2023-01-11T03:09:37.657Z,4.70
2023-01-11T03:12:56.342Z,4.60
2023-01-11T03:16:18.129Z,4.67
2023-01-11T03:19:34.239Z,4.40
2023-01-11T03:22:48.029Z,4.37
2023-01-11T03:26:00.731Z,3.97
2023-01-11T03:29:13.129Z,4.17
2023-01-11T03:32:26.085Z,4.03
2023-01-11T03:35:33.742Z,4.33
2023-01-11T03:38:42.024Z,3.97
2023-01-11T03:41:46.057Z,4.60
2023-01-11T03:44:55.891Z,4.07
2023-01-11T03:48:03.397Z,4.13
2023-01-11T03:51:10.831Z,3.77
2023-01-11T03:54:18.632Z,3.77
2023-01-11T03:57:27.657Z,4.27
2023-01-11T04:00:34.089Z,3.63
2023-01-11T04:03:39.072Z,3.20
2023-01-11T04:06:42.832Z,4.33
2023-01-11T04:09:46.289Z,3.83
2023-01-11T04:12:50.807Z,4.20
2023-01-11T04:15:56.408Z,3.20
2023-01-11T04:19:03.617Z,3.90
2023-01-11T04:22:07.091Z,14.40
2023-01-11T04:25:10.697Z,9.93
2023-01-11T04:28:13.959Z,12.43
2023-01-11T04:31:17.179Z,9.93
2023-01-11T04:34:22.091Z,9.47
2023-01-11T04:37:25.694Z,8.47
2023-01-11T04:40:28.745Z,6.63
2023-01-11T04:43:31.153Z,7.07
2023-01-11T04:46:34.428Z,6.23
2023-01-11T04:49:39.144Z,6.10
2023-01-11T04:52:42.670Z,6.10
2023-01-11T04:55:46.791Z,5.90
2023-01-11T04:58:52.145Z,4.77
2023-01-11T05:01:55.369Z,5.80
2023-01-11T05:04:59.824Z,5.90
2023-01-11T05:08:03.431Z,5.30
2023-01-11T05:11:08.693Z,5.47
2023-01-11T05:14:12.278Z,6.40
2023-01-11T05:17:16.180Z,6.93
2023-01-11T05:20:20.948Z,6.47
2023-01-11T05:23:24.300Z,6.87
2023-01-11T05:26:30.023Z,7.43
2023-01-11T05:29:33.133Z,6.40
2023-01-11T05:32:36.496Z,5.77
2023-01-11T05:35:41.180Z,6.10
2023-01-11T05:38:46.855Z,6.90
2023-01-11T05:41:54.690Z,6.40
2023-01-11T05:45:15.095Z,5.67
2023-01-11T05:48:18.513Z,5.80
2023-01-11T05:51:23.626Z,6.63
2023-01-11T05:54:26.941Z,7.27
2023-01-11T05:57:30.577Z,7.80
2023-01-11T06:00:33.964Z,7.67
2023-01-11T06:03:37.054Z,8.60
2023-01-11T06:06:42.946Z,7.90
2023-01-11T06:09:46.510Z,8.70
2023-01-11T06:13:13.433Z,8.40
2023-01-11T06:16:18.903Z,8.43
2023-01-11T06:19:22.007Z,8.70
2023-01-11T06:22:26.497Z,8.57
2023-01-11T06:25:30.571Z,9.90
2023-01-11T06:28:33.930Z,8.57
2023-01-11T06:31:37.150Z,8.57
2023-01-11T06:34:42.613Z,8.77
2023-01-11T06:37:47.288Z,9.20
2023-01-11T06:40:54.313Z,9.40
2023-01-11T06:43:57.780Z,9.10
2023-01-11T06:47:01.033Z,8.37
2023-01-11T06:50:04.453Z,8.03
2023-01-11T06:53:09.063Z,8.10
2023-01-11T06:56:16.159Z,8.10
2023-01-11T06:59:21.671Z,8.10
2023-01-11T07:02:25.049Z,7.97
2023-01-11T07:05:28.271Z,7.67
2023-01-11T07:08:35.262Z,7.93
2023-01-11T07:11:39.303Z,8.20
2023-01-11T07:14:42.446Z,7.67
2023-01-11T07:17:47.726Z,7.40
2023-01-11T07:20:52.119Z,7.60
2023-01-11T07:23:56.705Z,8.00
2023-01-11T07:27:01.927Z,7.50
2023-01-11T07:30:05.386Z,7.73
2023-01-11T07:33:10.677Z,6.70
2023-01-11T07:36:13.781Z,7.20
2023-01-11T07:39:18.266Z,7.63
2023-01-11T07:42:38.594Z,8.00
2023-01-11T07:45:46.363Z,7.37
2023-01-11T07:48:50.077Z,7.20
2023-01-11T07:51:53.175Z,7.47
2023-01-11T07:55:02.714Z,7.57
2023-01-11T07:58:06.115Z,6.50
2023-01-11T08:01:09.653Z,7.53
2023-01-11T08:04:14.418Z,6.93
2023-01-11T08:07:17.533Z,6.60
2023-01-11T08:10:22.167Z,6.93
2023-01-11T08:13:42.912Z,6.30
2023-01-11T08:16:46.253Z,6.80
2023-01-11T08:19:49.327Z,6.40
2023-01-11T08:22:52.383Z,6.90
2023-01-11T08:25:59.051Z,6.27
2023-01-11T08:29:02.146Z,7.07
2023-01-11T08:32:06.117Z,6.17
2023-01-11T08:35:10.241Z,6.17
2023-01-11T08:38:13.324Z,6.13
2023-01-11T08:41:17.711Z,6.20
2023-01-11T08:44:33.260Z,6.33
2023-01-11T08:47:37.057Z,6.20
2023-01-11T08:50:40.107Z,6.00
2023-01-11T08:53:43.789Z,6.37
2023-01-11T08:56:48.341Z,6.20
2023-01-11T08:59:51.346Z,6.10
2023-01-11T09:02:54.422Z,6.30
2023-01-11T09:05:57.924Z,5.97
2023-01-11T09:09:01.562Z,6.00
2023-01-11T09:12:06.952Z,5.70
2023-01-11T09:15:10.907Z,5.60
2023-01-11T09:18:16.478Z,5.60
2023-01-11T09:21:19.928Z,5.67
2023-01-11T09:24:23.024Z,5.60
2023-01-11T09:27:27.774Z,5.40
2023-01-11T09:30:31.373Z,5.10
2023-01-11T09:33:35.635Z,5.60
2023-01-11T09:36:40.289Z,5.50
2023-01-11T09:39:43.852Z,5.10
2023-01-11T09:42:53.814Z,4.90
2023-01-11T09:46:00.658Z,4.87
2023-01-11T09:49:04.959Z,4.60
2023-01-11T09:52:21.066Z,4.97
2023-01-11T09:55:33.095Z,4.60
2023-01-11T09:58:53.603Z,4.37
2023-01-11T10:02:05.515Z,4.90
2023-01-11T10:05:29.869Z,4.20
2023-01-11T10:18:40.323Z,4.47
2023-01-11T10:19:41.322Z,4.27
2023-01-11T10:22:48.551Z,3.87
2023-01-11T10:25:56.808Z,3.47
2023-01-11T10:29:22.459Z,4.27
2023-01-11T10:32:45.881Z,3.97
2023-01-11T10:36:10.623Z,3.90
2023-01-11T10:39:35.866Z,3.57
2023-01-11T10:42:46.220Z,3.70
2023-01-11T10:45:52.865Z,4.10
2023-01-11T10:49:13.840Z,3.40
2023-01-11T10:52:26.408Z,3.40
2023-01-11T10:55:39.863Z,3.27
2023-01-11T10:58:57.936Z,3.97
2023-01-11T11:02:11.602Z,3.10
2023-01-11T11:05:26.864Z,3.20
2023-01-11T11:08:40.429Z,3.30
2023-01-11T11:11:53.232Z,3.17
2023-01-11T11:15:03.894Z,2.53
2023-01-11T11:18:08.228Z,3.53
2023-01-11T11:21:22.176Z,3.00
2023-01-11T11:24:33.227Z,2.87
2023-01-11T11:27:43.351Z,3.50
2023-01-11T11:30:48.642Z,3.00
2023-01-11T11:33:52.320Z,3.07
2023-01-11T11:36:59.963Z,2.80
2023-01-11T11:40:04.008Z,2.70
2023-01-11T11:43:20.897Z,3.07
2023-01-11T11:46:27.977Z,2.63
2023-01-11T11:49:32.803Z,2.63
2023-01-11T11:52:37.352Z,2.17
2023-01-11T11:55:43.450Z,2.77
2023-01-11T11:58:47.198Z,2.57
2023-01-11T12:01:58.848Z,2.47
2023-01-11T12:05:08.832Z,2.80
2023-01-11T12:08:16.432Z,2.80
2023-01-11T12:11:21.656Z,2.40
2023-01-11T12:14:29.758Z,2.60
2023-01-11T12:17:32.933Z,2.37
2023-01-11T12:20:41.568Z,2.40
2023-01-11T12:23:46.179Z,2.20
2023-01-11T12:27:01.592Z,2.50
2023-01-11T12:30:24.418Z,2.70
2023-01-11T12:33:39.564Z,2.10
2023-01-11T12:36:53.857Z,2.70
2023-01-11T12:40:08.160Z,2.13
2023-01-11T12:43:33.107Z,2.20
2023-01-11T12:46:54.797Z,2.10
2023-01-11T12:50:06.512Z,2.03
2023-01-11T12:53:25.993Z,2.00
2023-01-11T12:56:51.283Z,2.20
2023-01-11T13:00:23.383Z,2.37
2023-01-11T13:03:50.436Z,1.97
2023-01-11T13:07:01.264Z,2.27
2023-01-11T13:10:37.989Z,2.00
2023-01-11T13:13:55.943Z,2.20
2023-01-11T13:17:19.611Z,2.00
2023-01-11T13:20:59.483Z,1.63
2023-01-11T13:24:09.657Z,2.00
2023-01-11T13:27:16.042Z,2.20
2023-01-11T13:30:24.420Z,1.93
2023-01-11T13:33:32.107Z,1.83
2023-01-11T13:36:43.866Z,2.07
2023-01-11T13:39:55.094Z,2.00
2023-01-11T13:43:04.924Z,2.07
2023-01-11T13:46:16.549Z,1.80
2023-01-11T13:49:36.035Z,1.97
2023-01-11T13:52:49.791Z,1.80
2023-01-11T13:55:59.963Z,1.97
2023-01-11T13:59:10.479Z,2.43
2023-01-11T14:02:22.648Z,1.90
2023-01-11T14:05:29.544Z,1.77
2023-01-11T14:09:12.736Z,1.70
2023-01-11T14:12:27.011Z,2.07
2023-01-11T14:15:38.002Z,1.97
2023-01-11T14:18:48.578Z,1.50
2023-01-11T14:22:05.896Z,1.97
2023-01-11T14:25:15.256Z,1.97
2023-01-11T14:28:33.736Z,1.67
2023-01-11T14:32:01.246Z,1.90
2023-01-11T14:35:32.795Z,1.90
2023-01-11T14:39:12.649Z,1.50
2023-01-11T14:42:36.205Z,1.60
2023-01-11T14:45:54.816Z,1.50
2023-01-11T14:49:10.919Z,1.80
2023-01-11T14:52:34.448Z,1.77
2023-01-11T14:55:46.687Z,1.70
2023-01-11T14:59:04.147Z,1.77
2023-01-11T15:02:28.594Z,1.57
2023-01-11T15:05:38.745Z,1.70
2023-01-11T15:08:52.287Z,1.70
2023-01-11T15:11:55.367Z,1.53
2023-01-11T15:15:04.270Z,1.90
2023-01-11T15:18:24.122Z,1.80
2023-01-11T15:21:28.682Z,1.93
2023-01-11T15:24:35.629Z,2.07
2023-01-11T15:27:40.318Z,1.77
2023-01-11T15:30:54.409Z,1.60
2023-01-11T15:34:03.487Z,1.60
2023-01-11T15:37:46.126Z,1.67
2023-01-11T15:40:54.730Z,1.60
2023-01-11T15:44:19.923Z,1.83
2023-01-11T15:47:47.822Z,1.80
2023-01-11T15:51:09.924Z,1.40
2023-01-11T15:54:46.259Z,1.50
2023-01-11T15:58:15.100Z,1.97
2023-01-11T16:01:28.593Z,1.83
2023-01-11T16:04:35.395Z,1.60
2023-01-11T16:07:43.424Z,1.90
2023-01-11T16:11:03.435Z,2.00
2023-01-11T16:14:52.694Z,1.73
2023-01-11T16:17:59.143Z,2.00
2023-01-11T16:21:06.113Z,1.87
2023-01-11T16:24:14.192Z,1.60
2023-01-11T16:27:24.340Z,1.67
2023-01-11T16:30:31.217Z,2.07
2023-01-11T16:33:36.001Z,1.80
2023-01-11T16:36:41.824Z,1.87
2023-01-11T16:39:45.071Z,2.47
2023-01-11T16:42:52.265Z,3.50
2023-01-11T16:45:58.421Z,3.67
2023-01-11T16:49:14.244Z,3.60
2023-01-11T16:52:42.952Z,3.10
2023-01-11T16:55:55.804Z,3.73
2023-01-11T16:59:07.981Z,4.10
2023-01-11T17:02:28.881Z,4.30
2023-01-11T17:05:32.040Z,4.43
2023-01-11T17:08:36.992Z,5.47
2023-01-11T17:11:45.577Z,5.00
2023-01-11T17:14:59.850Z,5.13
2023-01-11T17:18:05.922Z,5.00
2023-01-11T17:21:19.236Z,4.73
2023-01-11T17:24:26.277Z,5.00
2023-01-11T17:27:33.266Z,4.50
2023-01-11T17:30:38.575Z,4.73
2023-01-11T17:33:43.171Z,4.40
2023-01-11T17:36:47.611Z,4.70
2023-01-11T17:39:53.474Z,4.87
2023-01-11T17:43:20.506Z,4.40
2023-01-11T17:46:26.675Z,4.60
2023-01-11T17:49:33.712Z,7.30
2023-01-11T17:52:43.729Z,14.60
2023-01-11T17:55:55.635Z,10.40
2023-01-11T17:59:17.219Z,9.40
2023-01-11T18:02:21.363Z,8.53
2023-01-11T18:05:29.767Z,8.70
2023-01-11T18:08:33.610Z,7.33
2023-01-11T18:11:42.919Z,8.30
2023-01-11T18:14:53.194Z,6.97
2023-01-11T18:17:58.063Z,7.00
2023-01-11T18:21:05.247Z,7.50
2023-01-11T18:24:43.651Z,6.87
2023-01-11T18:27:47.141Z,6.80
2023-01-11T18:30:54.393Z,6.87
2023-01-11T18:33:57.936Z,5.93
2023-01-11T18:37:06.487Z,6.20
2023-01-11T18:40:13.903Z,6.37
2023-01-11T18:43:19.109Z,6.70
2023-01-11T18:46:23.421Z,6.40
2023-01-11T18:49:27.992Z,15.00
2023-01-11T18:52:34.061Z,12.63
2023-01-11T18:55:37.652Z,11.00
2023-01-11T18:58:40.834Z,10.40
2023-01-11T19:01:58.998Z,9.80
2023-01-11T19:05:13.835Z,9.40
2023-01-11T19:08:19.605Z,8.83
2023-01-11T19:11:26.878Z,8.80
2023-01-11T19:14:30.948Z,8.70
2023-01-11T19:17:34.621Z,7.50
2023-01-11T19:20:38.786Z,7.87
2023-01-11T19:23:45.494Z,11.97
2023-01-11T19:26:50.230Z,14.67
2023-01-11T19:29:54.215Z,15.00
2023-01-11T19:32:58.794Z,14.30
2023-01-11T19:36:07.690Z,14.60
2023-01-11T19:39:15.647Z,15.40
2023-01-11T19:42:20.708Z,13.30
2023-01-11T19:45:24.988Z,14.87
2023-01-11T19:48:28.227Z,15.20
2023-01-11T19:51:31.731Z,14.23
2023-01-11T19:54:36.535Z,12.37
2023-01-11T19:57:42.690Z,13.63
2023-01-11T20:00:49.029Z,12.70
2023-01-11T20:03:53.164Z,13.00
2023-01-11T20:06:56.731Z,12.70
2023-01-11T20:10:01.245Z,12.63
2023-01-11T20:13:04.450Z,12.17
2023-01-11T20:16:09.931Z,11.50
2023-01-11T20:19:17.466Z,11.43
2023-01-11T20:22:21.516Z,12.97
2023-01-11T20:25:27.370Z,11.53
2023-01-11T20:28:31.774Z,11.40
2023-01-11T20:31:35.859Z,10.90
2023-01-11T20:34:39.238Z,11.30
2023-01-11T20:37:42.838Z,10.30
2023-01-11T20:40:47.892Z,10.37
2023-01-11T20:43:52.015Z,9.27
2023-01-11T20:46:58.147Z,10.27
2023-01-11T20:50:01.813Z,9.67
2023-01-11T20:53:05.142Z,10.23
2023-01-11T20:56:11.138Z,10.20
2023-01-11T20:59:16.570Z,10.00
2023-01-11T21:02:19.914Z,9.07
2023-01-11T21:05:23.642Z,10.00
2023-01-11T21:08:27.488Z,8.87
2023-01-11T21:11:33.424Z,10.20
2023-01-11T21:14:37.314Z,8.20
2023-01-11T21:17:41.050Z,9.00
2023-01-11T21:20:48.371Z,9.30
2023-01-11T21:23:55.666Z,7.67
2023-01-11T21:27:00.379Z,7.83
2023-01-11T21:30:04.019Z,8.30
2023-01-11T21:33:07.409Z,7.97
2023-01-11T21:36:13.620Z,7.77
2023-01-11T21:39:18.129Z,8.40
2023-01-11T21:42:25.008Z,7.60
2023-01-11T21:45:28.745Z,7.70
2023-01-11T21:48:32.051Z,7.63
2023-01-11T21:51:35.488Z,6.97
2023-01-11T21:54:38.538Z,7.60
2023-01-11T21:57:44.360Z,7.20
2023-01-11T22:00:47.462Z,7.00
2023-01-11T22:03:51.550Z,6.40
2023-01-11T22:06:59.568Z,6.50
2023-01-11T22:10:05.303Z,6.53
2023-01-11T22:13:15.092Z,6.87
2023-01-11T22:20:35.700Z,6.53
2023-01-11T22:23:39.264Z,6.00
2023-01-11T22:26:42.865Z,6.30
2023-01-11T22:29:48.512Z,5.87
2023-01-11T22:32:52.236Z,6.17
2023-01-11T22:35:55.982Z,6.30
2023-01-11T22:38:59.491Z,6.17
2023-01-11T22:42:02.857Z,5.30
2023-01-11T22:45:08.823Z,5.67
2023-01-11T22:48:12.239Z,5.63
2023-01-11T22:51:17.485Z,5.87
2023-01-11T22:54:21.110Z,5.37
2023-01-11T22:57:24.447Z,5.27
2023-01-11T23:03:47.332Z,5.40
2023-01-11T23:06:50.403Z,4.67
2023-01-11T23:09:53.462Z,5.37
2023-01-11T23:13:13.799Z,5.47
2023-01-11T23:16:18.637Z,5.03
2023-01-11T23:19:22.140Z,4.50
2023-01-11T23:22:25.370Z,4.83
2023-01-11T23:25:28.737Z,4.67
2023-01-11T23:28:33.070Z,4.60
2023-01-11T23:31:38.095Z,5.10
2023-01-11T23:34:41.513Z,4.30
2023-01-11T23:37:44.647Z,5.60
2023-01-11T23:41:01.690Z,4.80
2023-01-11T23:44:07.212Z,3.77
2023-01-11T23:47:29.762Z,4.30
2023-01-11T23:50:33.709Z,4.20
2023-01-11T23:53:37.257Z,4.57
2023-01-11T23:56:41.034Z,4.40
2023-01-11T23:59:45.649Z,3.73
